sim
Sign-in with your pilot id or email,
or register
Callsign
Passwort

Schedule Details

Flight Number: RYR1371 (1)
Departure: Naples Airport (LIRN) at 09:00
Arrival: Thessaloniki International Airport (LGTS) at 10:40
Route: Ryanair Passenger Schedule. Enter filed route here before submitting Pirep.

Weather Information
Getting current METAR information for LIRN 172250Z 35003KT CAVOK 25/20 Q1017 NOSIG
Getting current METAR information for LGTS 172250Z 11004KT 9999 FEW025 21/16 Q1015 NOSIG

Schedule Frequency

Route Map